Time;durP1;ratioP1;P1;durP2;ratioP2;P2;SDS_P1;SDS_P2;PMS_P1;PMS_P2;Temp;Humidity;BMP_temperature;BMP_pressure;BME280_temperature;BME280_humidity;BME280_pressure;Samples;Min_cycle;Max_cycle;Signal;HPM_P1;HPM_P2
2021/07/07 00:01:40;;;;;;;13.25;10.75;;;;;;;;;;5135122;27;20106;-67
2021/07/07 00:04:07;;;;;;;16.27;10.43;;;;;;;;;;5134867;27;20019;-65
2021/07/07 00:06:33;;;;;;;15.68;10.52;;;;;;;;;;5134702;27;20163;-65
2021/07/07 00:08:59;;;;;;;17.17;11.10;;;;;;;;;;5134621;27;20035;-65
2021/07/07 00:11:25;;;;;;;18.33;11.00;;;;;;;;;;5135002;27;20023;-68
2021/07/07 00:13:52;;;;;;;18.38;11.27;;;;;;;;;;5134622;27;20102;-69
2021/07/07 00:16:18;;;;;;;18.00;10.82;;;;;;;;;;5116092;27;20028;-70
2021/07/07 00:18:44;;;;;;;18.42;10.25;;;;;;;;;;5134533;27;20098;-71
2021/07/07 00:21:11;;;;;;;15.70;10.82;;;;;;;;;;5134243;27;20379;-69
2021/07/07 00:23:37;;;;;;;16.15;10.98;;;;;;;;;;5134459;27;20080;-68
2021/07/07 00:26:03;;;;;;;15.30;10.75;;;;;;;;;;5134043;27;20118;-70
2021/07/07 00:28:30;;;;;;;15.85;10.02;;;;;;;;;;5134338;27;20102;-68
2021/07/07 00:30:57;;;;;;;14.77;10.95;;;;;;;;;;5134116;27;20376;-69
2021/07/07 00:33:23;;;;;;;16.17;10.52;;;;;;;;;;5134302;27;20015;-69
2021/07/07 00:35:49;;;;;;;13.15;10.60;;;;;;;;;;5134319;27;20098;-69
2021/07/07 00:38:16;;;;;;;12.82;11.13;;;;;;;;;;5114909;28;20069;-71
2021/07/07 00:40:43;;;;;;;14.75;11.48;;;;;;;;;;5133880;27;20495;-69
2021/07/07 00:43:09;;;;;;;16.55;11.88;;;;;;;;;;5133864;27;20405;-68
2021/07/07 00:45:35;;;;;;;17.27;11.48;;;;;;;;;;5134330;27;20177;-70
2021/07/07 00:48:02;;;;;;;16.88;11.10;;;;;;;;;;5115635;27;20431;-67
2021/07/07 00:50:28;;;;;;;16.08;12.07;;;;;;;;;;5134175;27;20047;-69
2021/07/07 00:52:57;;;;;;;16.15;11.75;;;;;;;;;;5134077;28;20023;-68
2021/07/07 00:55:24;;;;;;;21.35;12.70;;;;;;;;;;5134038;28;20488;-68
2021/07/07 00:57:51;;;;;;;19.00;13.27;;;;;;;;;;5133760;28;20055;-65
2021/07/07 01:00:19;;;;;;;21.35;13.45;;;;;;;;;;5133817;28;20034;-65
2021/07/07 01:02:47;;;;;;;19.83;12.38;;;;;;;;;;5134003;28;20197;-67
2021/07/07 01:05:14;;;;;;;20.90;13.73;;;;;;;;;;5133948;28;20023;-66
2021/07/07 01:07:40;;;;;;;18.15;11.80;;;;;;;;;;5133949;28;20023;-66
2021/07/07 01:10:07;;;;;;;13.93;11.48;;;;;;;;;;5116353;28;20035;-65
2021/07/07 01:12:34;;;;;;;17.63;11.95;;;;;;;;;;5116760;28;20481;-67
2021/07/07 01:15:04;;;;;;;12.57;10.15;;;;;;;;;;5134798;28;20027;-65
2021/07/07 01:17:32;;;;;;;15.48;10.85;;;;;;;;;;5135265;28;20107;-68
2021/07/07 01:19:59;;;;;;;15.25;12.30;;;;;;;;;;5135415;28;20051;-67
2021/07/07 01:22:27;;;;;;;15.13;11.82;;;;;;;;;;5135231;28;20046;-69
2021/07/07 01:24:53;;;;;;;19.20;13.32;;;;;;;;;;5116880;28;20123;-67
2021/07/07 01:27:19;;;;;;;15.75;12.45;;;;;;;;;;5134367;28;20046;-67
2021/07/07 01:29:46;;;;;;;22.90;13.27;;;;;;;;;;5133397;28;20039;-66
2021/07/07 01:32:12;;;;;;;22.02;13.60;;;;;;;;;;5133728;28;20051;-68
2021/07/07 01:34:39;;;;;;;16.80;12.88;;;;;;;;;;5133677;28;20083;-68
2021/07/07 01:37:06;;;;;;;18.52;13.38;;;;;;;;;;5133292;28;20083;-67
2021/07/07 01:39:33;;;;;;;16.02;13.40;;;;;;;;;;5133629;28;20019;-67
2021/07/07 01:41:59;;;;;;;19.92;13.57;;;;;;;;;;5133952;28;20156;-68
2021/07/07 01:44:25;;;;;;;19.95;13.95;;;;;;;;;;5133812;28;20110;-68
2021/07/07 01:46:51;;;;;;;17.83;13.35;;;;;;;;;;5133593;28;20034;-68
2021/07/07 01:49:18;;;;;;;17.45;12.13;;;;;;;;;;5133483;27;20064;-69
2021/07/07 01:51:44;;;;;;;16.95;12.93;;;;;;;;;;5137783;27;20364;-67
2021/07/07 01:54:10;;;;;;;18.98;13.65;;;;;;;;;;5137363;27;20030;-68
2021/07/07 01:56:36;;;;;;;23.05;13.27;;;;;;;;;;5137063;27;20033;-66
2021/07/07 01:59:03;;;;;;;21.50;12.88;;;;;;;;;;5137291;27;20026;-67
2021/07/07 02:01:29;;;;;;;17.85;12.95;;;;;;;;;;5118751;27;20023;-68
2021/07/07 02:03:55;;;;;;;17.33;12.52;;;;;;;;;;5118694;27;20114;-67
2021/07/07 02:06:21;;;;;;;17.67;11.43;;;;;;;;;;5137070;27;20045;-69
2021/07/07 02:08:48;;;;;;;13.95;12.27;;;;;;;;;;5136966;27;20027;-66
2021/07/07 02:11:14;;;;;;;22.38;13.50;;;;;;;;;;5118641;27;20023;-67
2021/07/07 02:13:40;;;;;;;17.10;12.32;;;;;;;;;;5136999;27;20015;-67
2021/07/07 02:16:07;;;;;;;16.67;12.63;;;;;;;;;;5136967;27;20033;-66
2021/07/07 02:18:33;;;;;;;15.10;12.70;;;;;;;;;;5136620;27;20425;-68
2021/07/07 02:20:59;;;;;;;17.48;12.48;;;;;;;;;;5118401;27;20076;-68
2021/07/07 02:23:26;;;;;;;20.95;13.23;;;;;;;;;;5118312;27;20019;-69
2021/07/07 02:25:53;;;;;;;17.85;13.45;;;;;;;;;;5137004;27;20052;-67
2021/07/07 02:28:25;;;;;;;19.25;13.10;;;;;;;;;;5136711;27;20031;-70
2021/07/07 02:30:53;;;;;;;19.35;13.13;;;;;;;;;;5136658;27;20015;-67
2021/07/07 02:33:19;;;;;;;22.50;13.63;;;;;;;;;;5118114;27;20023;-68
2021/07/07 02:35:46;;;;;;;27.17;13.52;;;;;;;;;;5136535;27;20023;-69
2021/07/07 02:38:13;;;;;;;19.73;14.10;;;;;;;;;;5136052;27;20111;-68
2021/07/07 02:40:40;;;;;;;20.20;14.40;;;;;;;;;;5136489;27;20395;-68
2021/07/07 02:43:07;;;;;;;18.25;13.48;;;;;;;;;;5118009;27;20026;-68
2021/07/07 02:45:34;;;;;;;19.50;14.20;;;;;;;;;;5136357;27;20027;-67
2021/07/07 02:48:01;;;;;;;24.60;13.50;;;;;;;;;;5136356;27;20034;-68
2021/07/07 02:50:27;;;;;;;17.65;13.23;;;;;;;;;;5136515;27;20023;-67
2021/07/07 02:52:54;;;;;;;19.60;13.63;;;;;;;;;;5136301;27;20547;-68
2021/07/07 02:55:20;;;;;;;18.40;13.48;;;;;;;;;;5136178;27;20105;-68
2021/07/07 02:58:01;;;;;;;29.58;12.98;;;;;;;;;;5117738;27;20050;-67
2021/07/07 03:00:41;;;;;;;15.98;12.93;;;;;;;;;;5117742;27;20051;-68
2021/07/07 03:03:08;;;;;;;16.90;13.05;;;;;;;;;;5135335;27;20055;-69
2021/07/07 03:05:36;;;;;;;23.15;13.93;;;;;;;;;;5117471;27;20027;-72
2021/07/07 03:08:03;;;;;;;16.75;12.30;;;;;;;;;;5117434;27;20030;-69
2021/07/07 03:10:29;;;;;;;16.45;12.68;;;;;;;;;;5135848;27;20023;-68
2021/07/07 03:12:55;;;;;;;20.85;13.05;;;;;;;;;;5136209;27;20020;-68
2021/07/07 03:15:23;;;;;;;24.23;12.95;;;;;;;;;;5136095;27;20026;-68
2021/07/07 03:17:49;;;;;;;17.00;13.40;;;;;;;;;;5136103;27;20080;-69
2021/07/07 03:20:16;;;;;;;25.33;13.65;;;;;;;;;;5117270;27;20098;-67
2021/07/07 03:22:43;;;;;;;16.45;14.05;;;;;;;;;;5117272;27;20118;-68
2021/07/07 03:25:09;;;;;;;22.27;13.82;;;;;;;;;;5135500;27;20111;-69
2021/07/07 03:27:36;;;;;;;14.52;12.63;;;;;;;;;;5135504;27;20031;-68
2021/07/07 03:30:04;;;;;;;22.17;14.15;;;;;;;;;;5135460;27;20016;-67
2021/07/07 03:32:30;;;;;;;15.13;13.07;;;;;;;;;;5135439;27;20079;-68
2021/07/07 03:34:56;;;;;;;19.48;13.80;;;;;;;;;;5135138;27;20091;-67
2021/07/07 03:37:22;;;;;;;20.73;13.77;;;;;;;;;;5113251;28;20047;-67
2021/07/07 03:39:49;;;;;;;18.40;13.15;;;;;;;;;;5114809;28;20043;-70
2021/07/07 03:42:16;;;;;;;16.38;12.05;;;;;;;;;;5114734;28;20027;-69
2021/07/07 03:44:42;;;;;;;25.40;14.70;;;;;;;;;;5114707;28;20072;-67
2021/07/07 03:47:09;;;;;;;17.50;13.35;;;;;;;;;;5114549;28;20024;-69
2021/07/07 03:49:35;;;;;;;16.83;12.32;;;;;;;;;;5113215;28;20055;-66
2021/07/07 03:52:01;;;;;;;21.65;12.50;;;;;;;;;;5114517;28;20023;-67
2021/07/07 03:54:27;;;;;;;24.52;14.43;;;;;;;;;;5114496;28;20035;-68
2021/07/07 03:56:57;;;;;;;18.33;13.70;;;;;;;;;;5114755;28;20153;-68
2021/07/07 03:59:23;;;;;;;17.17;13.00;;;;;;;;;;5114680;28;20028;-67
2021/07/07 04:01:53;;;;;;;19.45;14.00;;;;;;;;;;5114058;28;20034;-66
2021/07/07 04:04:19;;;;;;;16.85;13.68;;;;;;;;;;5114279;28;20026;-67
2021/07/07 04:06:45;;;;;;;21.67;15.60;;;;;;;;;;5114158;28;20032;-69
2021/07/07 04:09:13;;;;;;;25.92;15.65;;;;;;;;;;5112874;28;20376;-68
2021/07/07 04:11:39;;;;;;;20.20;15.35;;;;;;;;;;5114209;28;20348;-68
2021/07/07 04:14:06;;;;;;;23.15;15.93;;;;;;;;;;5114066;28;20015;-68
2021/07/07 04:16:32;;;;;;;20.50;14.77;;;;;;;;;;5112505;28;20027;-67
2021/07/07 04:18:58;;;;;;;25.95;15.13;;;;;;;;;;5114047;28;20024;-69
2021/07/07 04:21:25;;;;;;;25.63;14.73;;;;;;;;;;5113996;28;20142;-68
2021/07/07 04:23:52;;;;;;;31.08;14.10;;;;;;;;;;5114042;28;20123;-68
2021/07/07 04:26:18;;;;;;;23.40;15.35;;;;;;;;;;5113796;28;20119;-67
2021/07/07 04:28:44;;;;;;;21.80;13.73;;;;;;;;;;5113900;28;20031;-67
2021/07/07 04:31:10;;;;;;;26.45;14.98;;;;;;;;;;5113693;28;20096;-66
2021/07/07 04:33:36;;;;;;;20.73;13.68;;;;;;;;;;5113818;28;20094;-67
2021/07/07 04:36:03;;;;;;;16.98;14.02;;;;;;;;;;5114942;27;20160;-68
2021/07/07 04:38:29;;;;;;;22.83;15.55;;;;;;;;;;5115151;27;20130;-69
2021/07/07 04:40:55;;;;;;;21.00;14.27;;;;;;;;;;5115372;27;20034;-68
2021/07/07 04:43:21;;;;;;;24.30;16.27;;;;;;;;;;5134227;27;20027;-69
2021/07/07 04:45:47;;;;;;;22.27;15.20;;;;;;;;;;5133984;27;20114;-67
2021/07/07 04:48:14;;;;;;;22.30;15.98;;;;;;;;;;5134197;27;20098;-66
2021/07/07 04:50:40;;;;;;;23.85;16.40;;;;;;;;;;5134198;27;20019;-68
2021/07/07 04:53:06;;;;;;;21.15;14.93;;;;;;;;;;5134362;27;20098;-66
2021/07/07 04:55:33;;;;;;;23.92;15.40;;;;;;;;;;5133724;27;20115;-68
2021/07/07 04:57:59;;;;;;;23.20;16.30;;;;;;;;;;5133744;28;20034;-68
2021/07/07 05:00:25;;;;;;;26.50;15.85;;;;;;;;;;5134009;28;20033;-67
2021/07/07 05:02:52;;;;;;;24.40;16.60;;;;;;;;;;5133917;28;20467;-70
2021/07/07 05:05:20;;;;;;;28.25;16.77;;;;;;;;;;5115307;28;20023;-67
2021/07/07 05:07:46;;;;;;;28.65;16.25;;;;;;;;;;5115535;28;20035;-66
2021/07/07 05:10:13;;;;;;;23.65;17.05;;;;;;;;;;5115404;28;20019;-67
2021/07/07 05:12:40;;;;;;;26.08;17.35;;;;;;;;;;5115515;28;20027;-70
2021/07/07 05:15:07;;;;;;;25.92;17.35;;;;;;;;;;5133868;28;20042;-68
2021/07/07 05:17:34;;;;;;;28.52;17.77;;;;;;;;;;5115407;28;20110;-67
2021/07/07 05:20:00;;;;;;;26.30;17.90;;;;;;;;;;5134085;28;20106;-67
2021/07/07 05:22:27;;;;;;;27.77;17.05;;;;;;;;;;5133854;28;20027;-67
2021/07/07 05:24:54;;;;;;;25.60;17.77;;;;;;;;;;5134784;27;20034;-67
2021/07/07 05:27:20;;;;;;;29.05;17.98;;;;;;;;;;5137804;27;20024;-67
2021/07/07 05:29:46;;;;;;;26.65;17.73;;;;;;;;;;5138038;27;20110;-68
2021/07/07 05:32:12;;;;;;;26.77;17.20;;;;;;;;;;5138115;27;20098;-68
2021/07/07 05:34:40;;;;;;;22.58;16.10;;;;;;;;;;5119155;27;20075;-67
2021/07/07 05:37:07;;;;;;;25.95;15.65;;;;;;;;;;5118695;27;20047;-69
2021/07/07 05:39:33;;;;;;;30.98;16.50;;;;;;;;;;5137913;27;20050;-68
2021/07/07 05:41:59;;;;;;;25.65;16.30;;;;;;;;;;5137326;27;20379;-69
2021/07/07 05:44:26;;;;;;;25.00;15.93;;;;;;;;;;5137563;27;20062;-67
2021/07/07 05:46:52;;;;;;;25.70;15.55;;;;;;;;;;5137350;27;20467;-69
2021/07/07 05:49:18;;;;;;;24.92;15.52;;;;;;;;;;5118935;27;20027;-69
2021/07/07 05:51:44;;;;;;;27.05;15.48;;;;;;;;;;5137362;27;20063;-69
2021/07/07 05:54:11;;;;;;;34.22;14.75;;;;;;;;;;5137073;27;20015;-67
2021/07/07 05:56:37;;;;;;;20.23;14.23;;;;;;;;;;5137251;27;20019;-67
2021/07/07 05:59:03;;;;;;;23.33;13.00;;;;;;;;;;5137194;27;20059;-68
2021/07/07 06:01:29;;;;;;;25.65;13.20;;;;;;;;;;5137432;27;20026;-67
2021/07/07 06:03:55;;;;;;;15.93;11.45;;;;;;;;;;5136873;27;20023;-69
2021/07/07 06:06:21;;;;;;;17.70;12.18;;;;;;;;;;5136768;27;20136;-67
2021/07/07 06:08:48;;;;;;;18.23;11.50;;;;;;;;;;5137030;27;20023;-67
2021/07/07 06:11:14;;;;;;;24.10;13.20;;;;;;;;;;5136911;27;20057;-66
2021/07/07 06:13:40;;;;;;;20.83;12.88;;;;;;;;;;5136816;27;20099;-67
2021/07/07 06:16:06;;;;;;;17.23;12.25;;;;;;;;;;5136616;27;20106;-67
2021/07/07 06:18:33;;;;;;;23.85;14.05;;;;;;;;;;5137142;27;20479;-68
2021/07/07 06:20:59;;;;;;;23.73;13.18;;;;;;;;;;5136772;27;20528;-67
2021/07/07 06:23:25;;;;;;;26.75;12.88;;;;;;;;;;5136697;27;20556;-70
2021/07/07 06:25:51;;;;;;;21.98;13.70;;;;;;;;;;5133203;27;20391;-67
2021/07/07 06:28:18;;;;;;;20.80;13.98;;;;;;;;;;5136652;27;20114;-69
2021/07/07 06:30:44;;;;;;;29.83;13.35;;;;;;;;;;5136495;27;20128;-66
2021/07/07 06:33:11;;;;;;;20.75;12.82;;;;;;;;;;5118104;27;20110;-69
2021/07/07 06:35:37;;;;;;;26.50;13.27;;;;;;;;;;5136245;27;20050;-71
2021/07/07 06:38:05;;;;;;;24.88;12.10;;;;;;;;;;5135484;27;20051;-67
2021/07/07 06:40:31;;;;;;;25.38;12.10;;;;;;;;;;5134514;27;20072;-69
2021/07/07 06:42:58;;;;;;;23.10;11.63;;;;;;;;;;5134451;27;20023;-70
2021/07/07 06:45:25;;;;;;;25.58;11.65;;;;;;;;;;5134860;27;20034;-67
2021/07/07 06:47:51;;;;;;;20.70;11.45;;;;;;;;;;5117581;27;20352;-68
2021/07/07 06:50:18;;;;;;;18.70;11.00;;;;;;;;;;5135980;27;20015;-67
2021/07/07 06:52:45;;;;;;;19.48;10.85;;;;;;;;;;5135790;27;20027;-67
2021/07/07 06:55:11;;;;;;;23.17;11.45;;;;;;;;;;5135732;27;20011;-70
2021/07/07 06:57:38;;;;;;;61.13;14.50;;;;;;;;;;5136170;27;20079;-68
2021/07/07 07:00:08;;;;;;;19.05;10.73;;;;;;;;;;5117690;27;20115;-71
2021/07/07 07:02:35;;;;;;;15.87;10.20;;;;;;;;;;5136152;27;20593;-68
2021/07/07 07:05:01;;;;;;;23.65;11.15;;;;;;;;;;5117567;27;20251;-68
2021/07/07 07:07:28;;;;;;;16.98;9.95;;;;;;;;;;5135535;27;20035;-70
2021/07/07 07:09:58;;;;;;;16.33;10.68;;;;;;;;;;5135878;27;20028;-69
2021/07/07 07:12:25;;;;;;;18.13;9.80;;;;;;;;;;5135957;27;20015;-67
2021/07/07 07:14:53;;;;;;;15.52;9.98;;;;;;;;;;5135277;27;20051;-70
2021/07/07 07:17:19;;;;;;;16.83;10.57;;;;;;;;;;5133444;27;20025;-68
2021/07/07 07:19:45;;;;;;;16.67;9.90;;;;;;;;;;5114204;27;20114;-70
2021/07/07 07:22:11;;;;;;;13.63;10.27;;;;;;;;;;5116130;27;20046;-68
2021/07/07 07:24:38;;;;;;;10.90;9.25;;;;;;;;;;5134962;27;20102;-68
2021/07/07 07:27:04;;;;;;;13.50;10.40;;;;;;;;;;5134610;27;20106;-68
2021/07/07 07:29:31;;;;;;;13.05;8.10;;;;;;;;;;5134641;27;20038;-70
2021/07/07 07:31:57;;;;;;;17.30;8.25;;;;;;;;;;5116889;27;20023;-68
2021/07/07 07:40:12;;;;;;;13.30;9.25;;;;;;;;;;5134690;27;20149;-70
2021/07/07 07:42:42;;;;;;;19.60;8.38;;;;;;;;;;5134416;27;20019;-71
2021/07/07 07:45:09;;;;;;;10.48;8.52;;;;;;;;;;5116025;27;20114;-69
2021/07/07 07:47:36;;;;;;;14.55;7.97;;;;;;;;;;5115209;27;20428;-70
2021/07/07 07:50:02;;;;;;;11.48;8.55;;;;;;;;;;5134475;27;20103;-71
2021/07/07 07:52:28;;;;;;;14.25;7.93;;;;;;;;;;5116283;27;20486;-70
2021/07/07 07:54:55;;;;;;;11.30;7.68;;;;;;;;;;5134923;27;20015;-69
2021/07/07 07:57:21;;;;;;;12.65;8.35;;;;;;;;;;5134459;27;20031;-70
2021/07/07 07:59:47;;;;;;;9.18;6.95;;;;;;;;;;5116567;27;20051;-71
2021/07/07 08:02:15;;;;;;;8.77;7.65;;;;;;;;;;5116370;27;20035;-69
2021/07/07 08:04:41;;;;;;;10.98;7.68;;;;;;;;;;5134819;27;20015;-69
2021/07/07 08:07:07;;;;;;;13.63;7.90;;;;;;;;;;5134703;27;20027;-68
2021/07/07 08:09:33;;;;;;;21.83;7.88;;;;;;;;;;5134708;27;20519;-71
2021/07/07 08:12:00;;;;;;;13.35;7.10;;;;;;;;;;5134837;27;20077;-69
2021/07/07 08:14:26;;;;;;;12.15;7.38;;;;;;;;;;5116039;27;20372;-69
2021/07/07 08:16:52;;;;;;;14.23;8.13;;;;;;;;;;5134458;27;20026;-69
2021/07/07 08:19:18;;;;;;;8.10;7.03;;;;;;;;;;5134566;27;20023;-68
2021/07/07 08:21:45;;;;;;;11.60;7.30;;;;;;;;;;5116009;27;20023;-71
2021/07/07 08:24:11;;;;;;;8.60;7.15;;;;;;;;;;5134482;27;20072;-69
2021/07/07 08:26:38;;;;;;;11.27;6.97;;;;;;;;;;5134306;27;20035;-69
2021/07/07 08:29:04;;;;;;;12.60;7.60;;;;;;;;;;5134590;27;20459;-69
2021/07/07 08:31:30;;;;;;;7.32;6.63;;;;;;;;;;5134215;27;20030;-72
2021/07/07 08:33:56;;;;;;;11.80;7.28;;;;;;;;;;5115491;27;20147;-71
2021/07/07 08:36:26;;;;;;;9.98;7.10;;;;;;;;;;5134551;27;20027;-70
2021/07/07 08:38:53;;;;;;;11.48;7.25;;;;;;;;;;5115802;27;20061;-70
2021/07/07 08:41:20;;;;;;;13.57;7.15;;;;;;;;;;5134275;27;20026;-69
2021/07/07 08:43:46;;;;;;;10.20;7.35;;;;;;;;;;5134546;27;20015;-68
2021/07/07 08:46:12;;;;;;;10.75;8.02;;;;;;;;;;5116053;27;20023;-67
2021/07/07 08:48:39;;;;;;;21.42;7.88;;;;;;;;;;5134547;27;20038;-69
2021/07/07 08:51:07;;;;;;;17.13;7.22;;;;;;;;;;5115717;27;20106;-68
2021/07/07 08:53:33;;;;;;;10.32;8.05;;;;;;;;;;5134296;27;20015;-70
2021/07/07 08:55:59;;;;;;;8.70;7.60;;;;;;;;;;5134328;27;20025;-69
2021/07/07 08:58:26;;;;;;;11.45;8.05;;;;;;;;;;5137799;28;20106;-68
2021/07/07 09:00:52;;;;;;;11.15;7.25;;;;;;;;;;5144103;27;20015;-71
2021/07/07 09:03:19;;;;;;;7.95;6.90;;;;;;;;;;5145661;28;20035;-68
2021/07/07 09:05:51;;;;;;;7.60;6.70;;;;;;;;;;5140979;28;20020;-67
2021/07/07 09:08:24;;;;;;;14.00;7.88;;;;;;;;;;5146300;28;20491;-70
2021/07/07 09:10:50;;;;;;;12.48;7.80;;;;;;;;;;5145026;28;20019;-68
2021/07/07 09:13:24;;;;;;;9.32;7.22;;;;;;;;;;5146600;28;20045;-67
2021/07/07 09:15:50;;;;;;;10.38;7.72;;;;;;;;;;5144780;28;20019;-69
2021/07/07 09:18:32;;;;;;;12.50;7.88;;;;;;;;;;5141452;28;20019;-65
2021/07/07 09:20:58;;;;;;;10.90;7.30;;;;;;;;;;5142178;28;20015;-67
2021/07/07 09:23:27;;;;;;;13.23;8.00;;;;;;;;;;5138699;28;20045;-68
2021/07/07 09:25:55;;;;;;;12.65;7.88;;;;;;;;;;5133444;28;20483;-68
2021/07/07 09:28:29;;;;;;;9.45;7.18;;;;;;;;;;5133643;28;20035;-68
2021/07/07 09:30:57;;;;;;;8.32;7.53;;;;;;;;;;5115256;28;20023;-67
2021/07/07 09:33:23;;;;;;;9.63;8.05;;;;;;;;;;5115188;28;20075;-68
2021/07/07 09:35:50;;;;;;;9.18;7.82;;;;;;;;;;5133627;28;20102;-66
2021/07/07 09:38:19;;;;;;;10.15;7.63;;;;;;;;;;5114249;28;20058;-68
2021/07/07 09:40:46;;;;;;;13.68;7.57;;;;;;;;;;5133643;28;20015;-67
2021/07/07 09:43:13;;;;;;;8.32;6.85;;;;;;;;;;5133444;28;20494;-68
2021/07/07 09:45:43;;;;;;;7.75;6.97;;;;;;;;;;5132816;28;20037;-71
2021/07/07 09:48:11;;;;;;;11.55;7.68;;;;;;;;;;5132666;28;20050;-70
2021/07/07 09:50:37;;;;;;;10.63;8.25;;;;;;;;;;5132189;28;20023;-72
2021/07/07 09:53:03;;;;;;;9.48;6.78;;;;;;;;;;5132158;28;20027;-69
2021/07/07 09:55:30;;;;;;;10.18;7.35;;;;;;;;;;5132517;28;20016;-71
2021/07/07 09:57:56;;;;;;;8.43;7.60;;;;;;;;;;5133455;28;20027;-67
2021/07/07 10:00:23;;;;;;;12.05;7.55;;;;;;;;;;5133155;28;20379;-69
2021/07/07 10:02:50;;;;;;;10.32;7.60;;;;;;;;;;5133254;28;20080;-67
2021/07/07 10:05:17;;;;;;;10.80;7.63;;;;;;;;;;5132341;28;20019;-69
2021/07/07 10:07:46;;;;;;;10.18;7.25;;;;;;;;;;5133213;28;20056;-70
2021/07/07 10:10:16;;;;;;;8.55;7.63;;;;;;;;;;5131925;28;20475;-69
2021/07/07 10:12:44;;;;;;;10.50;7.40;;;;;;;;;;5136823;27;20015;-66
2021/07/07 10:15:13;;;;;;;15.40;7.63;;;;;;;;;;5136991;27;20401;-68
2021/07/07 10:17:41;;;;;;;13.43;7.28;;;;;;;;;;5137266;27;20050;-69
2021/07/07 10:20:08;;;;;;;10.82;7.40;;;;;;;;;;5136966;27;20030;-67
2021/07/07 10:22:35;;;;;;;12.63;7.82;;;;;;;;;;5137000;27;20110;-68
2021/07/07 10:25:01;;;;;;;9.52;7.20;;;;;;;;;;5116720;27;20023;-67
2021/07/07 10:27:27;;;;;;;7.65;6.93;;;;;;;;;;5135889;27;20019;-71
2021/07/07 10:29:54;;;;;;;14.38;7.53;;;;;;;;;;5136340;27;20061;-68
2021/07/07 10:32:20;;;;;;;10.63;7.65;;;;;;;;;;5118122;27;20045;-67
2021/07/07 10:34:48;;;;;;;10.38;7.20;;;;;;;;;;5136428;27;20055;-68
2021/07/07 10:37:14;;;;;;;7.88;7.07;;;;;;;;;;5136264;27;20043;-72
2021/07/07 10:39:40;;;;;;;9.93;6.75;;;;;;;;;;5118113;27;20027;-68
2021/07/07 10:42:08;;;;;;;11.52;7.38;;;;;;;;;;5118062;27;20045;-70
2021/07/07 10:44:39;;;;;;;10.10;6.90;;;;;;;;;;5136557;27;20015;-69
2021/07/07 10:47:13;;;;;;;7.82;6.68;;;;;;;;;;5136284;27;20032;-68
2021/07/07 10:49:41;;;;;;;8.07;7.28;;;;;;;;;;5136411;27;20019;-66
2021/07/07 10:52:09;;;;;;;11.82;6.40;;;;;;;;;;5136198;27;20034;-69
2021/07/07 10:54:36;;;;;;;9.50;7.55;;;;;;;;;;5117667;27;20371;-68
2021/07/07 10:57:09;;;;;;;10.95;7.10;;;;;;;;;;5117385;27;20113;-66
2021/07/07 10:59:42;;;;;;;11.18;7.05;;;;;;;;;;5136046;27;20050;-68
2021/07/07 11:02:25;;;;;;;7.82;7.07;;;;;;;;;;5136014;27;20019;-67
2021/07/07 11:04:53;;;;;;;9.90;7.00;;;;;;;;;;5136007;27;20495;-65
2021/07/07 11:07:22;;;;;;;8.00;7.18;;;;;;;;;;5135188;27;20375;-69
2021/07/07 11:09:52;;;;;;;7.65;6.97;;;;;;;;;;5135943;27;20375;-68
2021/07/07 11:12:41;;;;;;;8.32;7.15;;;;;;;;;;5136053;27;20034;-68
2021/07/07 11:15:08;;;;;;;7.85;7.15;;;;;;;;;;5068352;27;20053;-68
2021/07/07 11:17:35;;;;;;;13.73;8.75;;;;;;;;;;5135781;27;20031;-69
2021/07/07 11:20:04;;;;;;;10.10;6.65;;;;;;;;;;5135642;27;20467;-67
2021/07/07 11:22:30;;;;;;;7.43;6.80;;;;;;;;;;5134999;27;20034;-69
2021/07/07 11:24:57;;;;;;;7.80;6.72;;;;;;;;;;5134613;27;20023;-68
2021/07/07 11:27:24;;;;;;;15.07;7.50;;;;;;;;;;5135278;27;20031;-70
2021/07/07 11:29:50;;;;;;;7.75;6.65;;;;;;;;;;5135506;27;20168;-69
2021/07/07 11:32:24;;;;;;;7.40;6.82;;;;;;;;;;5134563;27;20091;-66
2021/07/07 11:34:52;;;;;;;12.00;6.80;;;;;;;;;;5134218;27;20609;-66
2021/07/07 11:37:20;;;;;;;8.57;6.65;;;;;;;;;;5124731;27;20134;-68
2021/07/07 11:40:04;;;;;;;7.78;6.90;;;43.30;48.70;;;;;;5114749;27;20377;-68
2021/07/07 11:42:30;;;;;;;7.07;6.47;;;;;;;;;;5128411;27;20030;-64
2021/07/07 11:44:56;;;;;;;8.10;6.88;;;44.10;48.20;;;;;;5134220;27;20318;-69
2021/07/07 11:47:35;;;;;;;9.50;6.63;;;44.60;47.00;;;;;;5134535;27;20027;-65
2021/07/07 11:50:10;;;;;;;6.73;6.07;;;44.60;46.70;;;;;;5116526;27;20051;-65
2021/07/07 11:53:03;;;;;;;10.65;6.13;;;45.10;76.00;;;;;;5116517;27;20293;-66
2021/07/07 11:55:43;;;;;;;6.70;6.05;;;;;;;;;;5116361;27;20488;-66
2021/07/07 11:58:10;;;;;;;6.82;5.80;;;;;;;;;;5116525;27;20023;-68
2021/07/07 12:00:39;;;;;;;6.68;6.18;;;;;;;;;;5116457;27;20042;-65
2021/07/07 12:03:06;;;;;;;9.05;6.47;;;;;;;;;;5134843;27;20573;-68
2021/07/07 12:05:32;;;;;;;7.50;6.10;;;46.30;43.10;;;;;;5133051;27;20031;-68
2021/07/07 12:08:17;;;;;;;12.60;6.53;;;;;;;;;;5134165;27;20029;-68
2021/07/07 12:10:43;;;;;;;7.50;6.00;;;;;;;;;;5122154;27;21238;-65
2021/07/07 12:13:39;;;;;;;8.90;6.60;;;47.00;73.40;;;;;;5114098;28;20065;-66
2021/07/07 12:16:14;;;;;;;7.00;6.38;;;;;;;;;;5105036;28;20092;-66
2021/07/07 12:18:41;;;;;;;8.75;6.88;;;;;;;;;;5112203;28;20027;-68
2021/07/07 12:21:07;;;;;;;19.15;6.40;;;;;;;;;;5114029;28;20020;-65
2021/07/07 12:23:53;;;;;;;8.70;5.50;;;48.00;40.30;;;;;;5113951;28;20039;-66
2021/07/07 12:26:21;;;;;;;6.47;5.90;;;48.30;40.50;;;;;;5113886;28;20023;-67
2021/07/07 12:28:48;;;;;;;8.20;6.00;;;48.70;56.80;;;;;;5113858;28;20055;-67
2021/07/07 12:31:15;;;;;;;6.97;6.38;;;48.80;40.00;;;;;;5113407;28;20115;-68
2021/07/07 12:33:43;;;;;;;7.28;6.57;;;48.30;40.50;;;;;;5113607;28;20047;-66
2021/07/07 12:36:11;;;;;;;11.65;5.75;;;48.60;42.50;;;;;;5111534;28;20055;-70
2021/07/07 12:38:47;;;;;;;7.78;6.20;;;49.00;55.20;;;;;;5113499;28;20464;-67
2021/07/07 12:41:14;;;;;;;6.28;5.68;;;48.20;40.50;;;;;;5113342;28;20023;-67
2021/07/07 12:43:55;;;;;;;10.70;6.18;;;48.60;39.70;;;;;;5112943;28;20035;-67
2021/07/07 12:46:23;;;;;;;6.63;6.00;;;49.50;40.00;;;;;;5113453;28;20031;-67
2021/07/07 12:48:55;;;;;;;7.97;6.30;;;49.80;50.10;;;;;;5113389;28;20114;-66
2021/07/07 12:51:29;;;;;;;7.45;6.25;;;50.20;39.40;;;;;;5111992;28;20111;-67
2021/07/07 12:53:57;;;;;;;7.97;6.20;;;50.50;39.70;;;;;;5112299;28;20467;-67
2021/07/07 12:56:23;;;;;;;9.48;6.10;;;50.30;38.40;;;;;;5113224;28;20023;-68
2021/07/07 12:59:12;;;;;;;9.15;6.50;;;50.30;38.90;;;;;;5111804;28;20024;-67
2021/07/07 13:01:39;;;;;;;6.43;5.80;;;50.20;39.20;;;;;;5112133;28;20322;-66
2021/07/07 13:04:17;;;;;;;7.13;5.47;;;50.70;47.90;;;;;;5113612;28;20484;-67
2021/07/07 13:06:44;;;;;;;7.97;5.40;;;50.70;38.90;;;;;;5114005;28;20502;-65
2021/07/07 13:09:11;;;;;;;5.47;5.07;;;50.70;37.90;;;;;;5111999;28;20035;-67
2021/07/07 13:11:37;;;;;;;6.28;5.68;;;50.80;36.20;;;;;;5114133;28;20032;-65
2021/07/07 13:14:12;;;;;;;5.43;5.03;;;51.10;41.40;;;;;;5114740;28;20031;-68
2021/07/07 13:16:38;;;;;;;6.13;5.53;;;51.40;39.60;;;;;;5115460;28;20062;-67
2021/07/07 13:19:20;;;;;;;6.22;5.53;;;50.90;50.80;;;;;;5113244;28;20032;-69
2021/07/07 13:21:52;;;;;;;8.27;5.85;;;51.30;57.60;;;;;;5111785;28;20380;-67
2021/07/07 13:24:18;;;;;;;5.30;4.88;;;51.50;56.50;;;;;;5111375;28;20050;-69
2021/07/07 13:26:49;;;;;;;9.40;5.10;;;51.40;51.60;;;;;;5112729;28;20039;-69
2021/07/07 13:29:24;;;;;;;6.03;4.80;;;51.60;54.00;;;;;;5112931;28;20080;-67
2021/07/07 13:32:07;;;;;;;6.20;5.60;;;51.80;49.30;;;;;;5112851;28;20019;-69
2021/07/07 13:34:47;;;;;;;9.75;5.43;;;52.70;49.70;;;;;;5111566;28;20023;-70
2021/07/07 13:37:35;;;;;;;8.55;5.03;;;52.60;34.20;;;;;;5113126;28;20391;-70
2021/07/07 13:40:07;;;;;;;9.32;5.30;;;52.70;34.30;;;;;;5113083;28;20093;-69
2021/07/07 13:42:35;;;;;;;5.68;5.28;;;53.00;34.10;;;;;;5113089;28;20050;-70
2021/07/07 13:45:02;;;;;;;6.00;5.50;;;52.80;34.20;;;;;;5111706;28;20058;-71
2021/07/07 13:47:29;;;;;;;6.50;5.10;;;52.50;34.70;;;;;;5116067;28;20042;-68
2021/07/07 13:49:56;;;;;;;7.93;5.07;;;52.70;35.40;;;;;;5115613;28;20035;-68
2021/07/07 13:52:22;;;;;;;9.20;5.70;;;52.60;34.70;;;;;;5115543;28;20111;-66
2021/07/07 13:54:48;;;;;;;5.63;4.90;;;52.40;35.20;;;;;;5116432;27;20102;-69
2021/07/07 13:57:15;;;;;;;5.53;5.03;;;52.00;35.40;;;;;;5116783;28;20038;-68
2021/07/07 13:59:42;;;;;;;5.78;5.28;;;52.50;34.20;;;;;;5116915;28;20027;-71
2021/07/07 14:02:08;;;;;;;9.15;5.53;;;52.80;35.10;;;;;;5115369;28;20062;-66
2021/07/07 14:04:35;;;;;;;6.38;4.90;;;52.30;36.10;;;;;;5115049;28;20024;-67
2021/07/07 14:07:01;;;;;;;6.00;5.30;;;52.50;35.00;;;;;;5116442;28;20031;-68
2021/07/07 14:09:27;;;;;;;5.32;4.63;;;52.20;34.80;;;;;;5115800;28;20036;-68
2021/07/07 14:11:54;;;;;;;6.50;4.63;;;52.60;33.90;;;;;;5116544;28;20028;-67
2021/07/07 14:14:21;;;;;;;14.90;4.85;;;52.90;34.40;;;;;;5115082;28;20031;-67
2021/07/07 14:16:47;;;;;;;4.72;4.35;;;52.90;35.60;;;;;;5116363;28;20082;-68